createdAt,value
2024-02-18T00:04:34.759Z,3.00
2024-02-18T00:07:01.721Z,2.65
2024-02-18T00:09:28.473Z,3.33
2024-02-18T00:11:55.964Z,2.63
2024-02-18T00:14:22.800Z,2.60
2024-02-18T00:16:49.961Z,2.42
2024-02-18T00:19:16.827Z,2.30
2024-02-18T00:21:43.568Z,2.42
2024-02-18T00:24:10.174Z,2.25
2024-02-18T00:26:48.732Z,2.40
2024-02-18T00:29:23.885Z,2.38
2024-02-18T00:31:50.429Z,2.80
2024-02-18T00:34:24.328Z,2.35
2024-02-18T00:36:52.129Z,2.65
2024-02-18T00:39:19.148Z,2.53
2024-02-18T00:41:45.734Z,2.45
2024-02-18T00:44:12.588Z,2.28
2024-02-18T00:46:45.550Z,2.55
2024-02-18T00:49:19.094Z,2.30
2024-02-18T00:51:46.438Z,2.50
2024-02-18T00:54:13.207Z,2.65
2024-02-18T00:56:39.752Z,2.95
2024-02-18T00:59:06.282Z,2.20
2024-02-18T01:01:32.942Z,2.92
2024-02-18T01:04:00.322Z,3.10
2024-02-18T01:06:27.111Z,2.85
2024-02-18T01:08:53.725Z,2.45
2024-02-18T01:11:20.302Z,3.25
2024-02-18T01:13:46.894Z,3.35
2024-02-18T01:16:13.629Z,3.30
2024-02-18T01:18:41.840Z,3.22
2024-02-18T01:21:08.825Z,3.90
2024-02-18T01:23:36.571Z,3.33
2024-02-18T01:26:04.467Z,3.40
2024-02-18T01:28:31.061Z,3.10
2024-02-18T01:30:57.767Z,3.55
2024-02-18T01:33:24.977Z,3.35
2024-02-18T01:35:51.715Z,3.03
2024-02-18T01:38:18.519Z,3.17
2024-02-18T01:40:45.219Z,3.33
2024-02-18T01:43:14.199Z,3.00
2024-02-18T01:45:40.898Z,3.33
2024-02-18T01:48:08.103Z,2.92
2024-02-18T01:50:35.174Z,3.33
2024-02-18T01:53:01.854Z,2.90
2024-02-18T01:55:28.598Z,2.83
2024-02-18T01:57:55.281Z,2.53
2024-02-18T02:00:22.658Z,2.97
2024-02-18T02:02:50.630Z,3.20
2024-02-18T02:05:20.830Z,2.95
2024-02-18T02:07:53.554Z,3.25
2024-02-18T02:10:20.740Z,2.25
2024-02-18T02:12:47.473Z,2.90
2024-02-18T02:15:14.340Z,2.42
2024-02-18T02:17:41.007Z,2.65
2024-02-18T02:20:10.350Z,1.88
2024-02-18T02:22:38.416Z,3.13
2024-02-18T02:25:07.322Z,3.30
2024-02-18T02:27:45.525Z,3.28
2024-02-18T02:30:12.434Z,3.60
2024-02-18T02:32:39.287Z,2.90
2024-02-18T02:35:07.995Z,3.95
2024-02-18T02:37:35.165Z,3.58
2024-02-18T02:40:01.792Z,4.60
2024-02-18T02:42:28.475Z,3.50
2024-02-18T02:44:54.975Z,4.13
2024-02-18T02:47:21.747Z,4.20
2024-02-18T02:49:48.466Z,3.83
2024-02-18T02:52:15.201Z,3.17
2024-02-18T02:54:41.852Z,4.25
2024-02-18T02:57:08.482Z,4.07
2024-02-18T02:59:35.019Z,3.90
2024-02-18T03:02:01.825Z,4.30
2024-02-18T03:04:28.784Z,4.72
2024-02-18T03:06:55.690Z,4.63
2024-02-18T03:09:22.444Z,4.50
2024-02-18T03:11:49.303Z,4.93
2024-02-18T03:14:16.203Z,4.60
2024-02-18T03:16:42.892Z,4.38
2024-02-18T03:19:09.721Z,5.38
2024-02-18T03:21:36.512Z,4.53
2024-02-18T03:24:03.345Z,4.45
2024-02-18T03:26:30.896Z,3.90
2024-02-18T03:28:57.555Z,4.32
2024-02-18T03:31:24.111Z,4.07
2024-02-18T03:33:50.802Z,4.30
2024-02-18T03:36:17.389Z,3.05
2024-02-18T03:38:44.029Z,3.55
2024-02-18T03:41:10.612Z,3.80
2024-02-18T03:43:37.196Z,3.67
2024-02-18T03:46:04.246Z,3.67
2024-02-18T03:48:31.083Z,3.28
2024-02-18T03:50:57.858Z,3.22
2024-02-18T03:53:24.498Z,3.13
2024-02-18T03:55:51.401Z,3.20
2024-02-18T03:58:18.084Z,3.00
2024-02-18T04:00:47.920Z,3.75
2024-02-18T04:03:15.254Z,3.60
2024-02-18T04:05:42.990Z,3.20
2024-02-18T04:08:10.380Z,3.20
2024-02-18T04:10:37.367Z,3.10
2024-02-18T04:13:05.093Z,3.53
2024-02-18T04:15:31.966Z,3.20
2024-02-18T04:17:58.888Z,2.80
2024-02-18T04:20:25.795Z,3.33
2024-02-18T04:22:52.406Z,3.40
2024-02-18T04:25:19.082Z,3.50
2024-02-18T04:27:45.673Z,3.58
2024-02-18T04:30:12.695Z,4.00
2024-02-18T04:32:39.229Z,2.88
2024-02-18T04:35:06.170Z,3.00
2024-02-18T04:37:32.895Z,3.00
2024-02-18T04:39:59.593Z,3.40
2024-02-18T04:42:26.323Z,3.90
2024-02-18T04:44:52.901Z,3.45
2024-02-18T04:47:19.678Z,3.80
2024-02-18T04:49:46.454Z,3.78
2024-02-18T04:52:13.297Z,3.88
2024-02-18T04:54:40.851Z,4.07
2024-02-18T04:57:08.052Z,3.90
2024-02-18T04:59:35.338Z,3.75
2024-02-18T05:02:04.085Z,3.97
2024-02-18T05:04:32.917Z,3.92
2024-02-18T05:07:00.815Z,3.90
2024-02-18T05:09:27.740Z,3.65
2024-02-18T05:11:55.595Z,2.88
2024-02-18T05:14:22.298Z,3.88
2024-02-18T05:16:49.308Z,2.90
2024-02-18T05:19:16.826Z,3.22
2024-02-18T05:21:43.820Z,2.95
2024-02-18T05:24:15.054Z,3.67
2024-02-18T05:26:41.678Z,3.00
2024-02-18T05:29:10.486Z,2.92
2024-02-18T05:31:37.115Z,2.97
2024-02-18T05:34:04.370Z,3.17
2024-02-18T05:36:31.598Z,2.72
2024-02-18T05:38:58.146Z,3.20
2024-02-18T05:41:24.700Z,3.15
2024-02-18T05:43:51.388Z,2.83
2024-02-18T05:46:18.413Z,3.13
2024-02-18T05:48:46.117Z,3.15
2024-02-18T05:51:13.094Z,3.00
2024-02-18T05:53:39.613Z,2.80
2024-02-18T05:56:07.961Z,2.45
2024-02-18T05:58:34.631Z,2.42
2024-02-18T06:01:01.446Z,3.30
2024-02-18T06:03:28.153Z,3.40
2024-02-18T06:05:54.904Z,4.03
2024-02-18T06:08:21.786Z,3.70
2024-02-18T06:10:50.046Z,3.85
2024-02-18T06:13:16.768Z,4.05
2024-02-18T06:15:43.373Z,3.70
2024-02-18T06:18:10.137Z,5.53
2024-02-18T06:20:36.778Z,4.32
2024-02-18T06:23:03.439Z,4.22
2024-02-18T06:25:36.651Z,3.75
2024-02-18T06:28:10.258Z,4.10
2024-02-18T06:30:37.990Z,3.97
2024-02-18T06:33:05.181Z,3.65
2024-02-18T06:35:32.057Z,3.95
2024-02-18T06:37:58.806Z,3.25
2024-02-18T06:40:28.618Z,3.22
2024-02-18T06:42:55.269Z,3.45
2024-02-18T06:45:21.911Z,4.43
2024-02-18T06:47:49.029Z,3.10
2024-02-18T06:50:16.638Z,3.42
2024-02-18T06:52:43.209Z,2.83
2024-02-18T06:55:11.017Z,3.08
2024-02-18T06:57:38.010Z,3.08
2024-02-18T07:00:05.454Z,3.35
2024-02-18T07:02:32.181Z,3.40
2024-02-18T07:04:58.784Z,3.53
2024-02-18T07:07:25.489Z,3.20
2024-02-18T07:09:52.243Z,3.15
2024-02-18T07:12:18.780Z,3.63
2024-02-18T07:14:45.342Z,3.13
2024-02-18T07:17:13.832Z,2.60
2024-02-18T07:19:40.502Z,3.50
2024-02-18T07:22:07.831Z,3.35
2024-02-18T07:24:34.718Z,3.10
2024-02-18T07:27:01.289Z,3.17
2024-02-18T07:29:27.775Z,2.78
2024-02-18T07:31:54.334Z,3.13
2024-02-18T07:34:21.392Z,2.60
2024-02-18T07:36:48.204Z,2.67
2024-02-18T07:39:14.812Z,3.15
2024-02-18T07:41:41.340Z,2.33
2024-02-18T07:44:08.671Z,2.97
2024-02-18T07:46:35.304Z,2.22
2024-02-18T07:49:02.058Z,2.38
2024-02-18T07:51:29.507Z,2.00
2024-02-18T07:53:57.238Z,2.42
2024-02-18T07:56:23.949Z,2.83
2024-02-18T07:58:50.725Z,2.38
2024-02-18T08:01:17.423Z,2.45
2024-02-18T08:03:44.347Z,2.10
2024-02-18T08:06:11.081Z,2.05
2024-02-18T08:08:37.646Z,2.55
2024-02-18T08:11:04.351Z,1.95
2024-02-18T08:13:30.887Z,1.95
2024-02-18T08:15:59.664Z,2.40
2024-02-18T08:18:26.656Z,2.42
2024-02-18T08:20:53.248Z,2.22
2024-02-18T08:23:19.813Z,2.00
2024-02-18T08:25:46.597Z,3.58
2024-02-18T08:28:13.368Z,2.15
2024-02-18T08:30:39.939Z,2.75
2024-02-18T08:33:06.520Z,2.17
2024-02-18T08:35:33.053Z,2.15
2024-02-18T08:37:59.556Z,2.42
2024-02-18T08:40:26.995Z,2.22
2024-02-18T08:42:54.316Z,2.67
2024-02-18T08:45:21.608Z,2.47
2024-02-18T08:47:49.526Z,1.83
2024-02-18T08:50:16.339Z,2.45
2024-02-18T08:52:42.867Z,2.00
2024-02-18T08:55:09.638Z,2.53
2024-02-18T08:57:36.466Z,2.30
2024-02-18T09:00:04.136Z,3.15
2024-02-18T09:02:30.773Z,2.30
2024-02-18T09:05:00.751Z,1.85
2024-02-18T09:07:29.549Z,2.80
2024-02-18T09:09:56.369Z,2.38
2024-02-18T09:12:22.994Z,2.30
2024-02-18T09:14:49.670Z,2.10
2024-02-18T09:17:19.215Z,2.00
2024-02-18T09:19:49.251Z,1.58
2024-02-18T09:22:15.972Z,1.67
2024-02-18T09:24:45.551Z,2.30
2024-02-18T09:27:12.237Z,1.85
2024-02-18T09:29:39.444Z,1.90
2024-02-18T09:32:06.569Z,1.92
2024-02-18T09:34:33.295Z,2.17
2024-02-18T09:36:59.970Z,2.03
2024-02-18T09:39:26.699Z,1.90
2024-02-18T09:41:54.268Z,1.98
2024-02-18T09:44:23.930Z,1.80
2024-02-18T09:46:53.332Z,1.60
2024-02-18T09:49:21.564Z,2.22
2024-02-18T09:51:54.117Z,1.85
2024-02-18T09:54:22.608Z,1.77
2024-02-18T09:56:49.284Z,2.10
2024-02-18T09:59:18.110Z,2.13
2024-02-18T10:01:48.844Z,1.60
2024-02-18T10:04:15.694Z,1.98
2024-02-18T10:06:44.735Z,1.80
2024-02-18T10:09:11.429Z,2.15
2024-02-18T10:11:38.045Z,1.65
2024-02-18T10:14:07.169Z,2.05
2024-02-18T10:16:37.247Z,2.10
2024-02-18T10:19:04.114Z,2.28
2024-02-18T10:21:30.771Z,2.20
2024-02-18T10:23:57.436Z,2.40
2024-02-18T10:26:24.074Z,1.80
2024-02-18T10:28:50.638Z,2.13
2024-02-18T10:31:17.216Z,2.72
2024-02-18T10:33:43.974Z,2.45
2024-02-18T10:36:15.901Z,2.53
2024-02-18T10:38:47.523Z,2.33
2024-02-18T10:41:17.721Z,2.22
2024-02-18T10:43:51.487Z,2.38
2024-02-18T10:46:21.808Z,2.28
2024-02-18T10:49:20.121Z,2.17
2024-02-18T10:51:51.191Z,2.42
2024-02-18T10:54:27.702Z,1.80
2024-02-18T10:56:56.632Z,2.67
2024-02-18T10:59:46.647Z,2.58
2024-02-18T11:02:20.601Z,2.50
2024-02-18T11:04:49.501Z,2.70
2024-02-18T11:07:17.832Z,2.72
2024-02-18T11:09:47.041Z,2.45
2024-02-18T11:12:14.773Z,2.72
2024-02-18T11:14:41.401Z,2.50
2024-02-18T11:17:09.718Z,2.35
2024-02-18T11:19:38.847Z,2.70
2024-02-18T11:22:06.583Z,2.80
2024-02-18T11:24:33.189Z,2.95
2024-02-18T11:26:59.778Z,2.95
2024-02-18T11:29:26.380Z,2.90
2024-02-18T11:31:55.033Z,3.13
2024-02-18T11:34:21.703Z,2.95
2024-02-18T11:36:48.634Z,2.75
2024-02-18T11:39:15.754Z,1.88
2024-02-18T11:41:43.143Z,2.28
2024-02-18T11:44:14.391Z,2.80
2024-02-18T11:46:46.040Z,3.22
2024-02-18T11:49:13.271Z,2.75
2024-02-18T11:51:41.746Z,3.10
2024-02-18T11:54:08.560Z,2.33
2024-02-18T11:56:35.468Z,3.17
2024-02-18T11:59:02.370Z,2.95
2024-02-18T12:01:33.904Z,2.88
2024-02-18T12:04:01.161Z,2.70
2024-02-18T12:06:27.966Z,3.22
2024-02-18T12:08:54.887Z,2.60
2024-02-18T12:11:21.625Z,2.95
2024-02-18T12:13:50.438Z,2.83
2024-02-18T12:16:17.806Z,3.25
2024-02-18T12:18:45.040Z,2.10
2024-02-18T12:21:15.480Z,2.80
2024-02-18T12:23:43.887Z,2.55
2024-02-18T12:26:10.672Z,3.10
2024-02-18T12:28:37.269Z,2.30
2024-02-18T12:31:05.140Z,2.70
2024-02-18T12:33:32.600Z,2.83
2024-02-18T12:35:59.379Z,2.55
2024-02-18T12:38:28.803Z,3.28
2024-02-18T12:40:57.109Z,2.47
2024-02-18T12:43:57.921Z,2.63
2024-02-18T12:46:13.335Z,2.63
2024-02-18T12:48:40.749Z,2.72
2024-02-18T12:51:17.090Z,2.83
2024-02-18T12:53:44.487Z,2.70
2024-02-18T12:56:13.438Z,2.80
2024-02-18T12:58:40.720Z,2.30
2024-02-18T13:01:10.390Z,2.05
2024-02-18T13:03:39.127Z,3.22
2024-02-18T13:06:07.996Z,2.47
2024-02-18T13:08:35.238Z,2.15
2024-02-18T13:11:02.147Z,2.47
2024-02-18T13:13:29.212Z,2.88
2024-02-18T13:15:59.292Z,2.67
2024-02-18T13:18:29.360Z,2.30
2024-02-18T13:21:04.400Z,2.10
2024-02-18T13:23:38.779Z,2.67
2024-02-18T13:28:44.555Z,2.38
2024-02-18T13:31:14.672Z,2.17
2024-02-18T13:33:41.414Z,1.83
2024-02-18T13:36:08.586Z,2.42
2024-02-18T13:38:35.492Z,2.40
2024-02-18T13:41:03.318Z,2.58
2024-02-18T13:43:31.410Z,2.45
2024-02-18T13:45:58.063Z,2.40
2024-02-18T13:48:24.783Z,2.25
2024-02-18T13:50:51.769Z,2.65
2024-02-18T13:53:18.549Z,2.63
2024-02-18T13:55:45.076Z,2.70
2024-02-18T13:58:11.677Z,2.55
2024-02-18T14:00:38.624Z,2.25
2024-02-18T14:03:05.397Z,2.60
2024-02-18T14:05:32.060Z,3.03
2024-02-18T14:07:58.589Z,2.90
2024-02-18T14:10:28.089Z,2.45
2024-02-18T14:12:54.761Z,2.47
2024-02-18T14:15:23.440Z,2.45
2024-02-18T14:17:55.746Z,2.40
2024-02-18T14:20:22.961Z,2.55
2024-02-18T14:22:50.700Z,1.83
2024-02-18T14:25:21.764Z,2.00
2024-02-18T14:27:49.968Z,1.85
2024-02-18T14:30:18.096Z,1.98
2024-02-18T14:32:45.610Z,2.17
2024-02-18T14:35:12.584Z,1.88
2024-02-18T14:37:39.330Z,1.83
2024-02-18T14:40:06.881Z,1.80
2024-02-18T14:42:33.509Z,1.67
2024-02-18T14:45:01.643Z,2.25
2024-02-18T14:47:28.962Z,1.77
2024-02-18T14:49:55.787Z,1.80
2024-02-18T14:52:22.448Z,1.90
2024-02-18T14:54:49.049Z,1.92
2024-02-18T14:57:16.780Z,1.70
2024-02-18T14:59:43.401Z,1.60
2024-02-18T15:02:09.943Z,1.90
2024-02-18T15:04:36.879Z,1.55
2024-02-18T15:07:03.684Z,1.38
2024-02-18T15:09:33.379Z,1.38
2024-02-18T15:12:00.421Z,2.00
2024-02-18T15:14:28.277Z,1.30
2024-02-18T15:16:54.978Z,1.58
2024-02-18T15:19:22.099Z,1.50
2024-02-18T15:21:49.702Z,1.35
2024-02-18T15:24:16.659Z,1.65
2024-02-18T15:26:45.449Z,1.20
2024-02-18T15:29:12.544Z,1.58
2024-02-18T15:31:40.212Z,1.40
2024-02-18T15:34:06.814Z,1.30
2024-02-18T15:36:33.498Z,1.40
2024-02-18T15:39:00.518Z,1.40
2024-02-18T15:41:27.410Z,1.55
2024-02-18T15:43:54.126Z,1.40
2024-02-18T15:46:20.820Z,1.20
2024-02-18T15:48:47.825Z,1.25
2024-02-18T15:51:14.514Z,1.52
2024-02-18T15:53:42.013Z,1.85
2024-02-18T15:56:09.073Z,1.25
2024-02-18T15:58:36.366Z,1.30
2024-02-18T16:01:05.042Z,1.50
2024-02-18T16:03:32.733Z,1.58
2024-02-18T16:05:59.466Z,1.42
2024-02-18T16:08:34.424Z,1.40
2024-02-18T16:11:04.681Z,1.50
2024-02-18T16:13:31.389Z,1.60
2024-02-18T16:15:57.950Z,1.70
2024-02-18T16:18:24.630Z,1.60
2024-02-18T16:20:51.236Z,1.60
2024-02-18T16:23:17.851Z,1.48
2024-02-18T16:25:44.382Z,1.92
2024-02-18T16:28:11.651Z,1.75
2024-02-18T16:30:38.323Z,1.80
2024-02-18T16:33:05.088Z,1.80
2024-02-18T16:35:31.927Z,2.17
2024-02-18T16:37:58.579Z,2.40
2024-02-18T16:40:25.677Z,1.95
2024-02-18T16:42:52.388Z,2.17
2024-02-18T16:45:19.068Z,2.50
2024-02-18T16:47:45.688Z,2.25
2024-02-18T16:50:12.381Z,2.20
2024-02-18T16:52:38.968Z,2.10
2024-02-18T16:55:06.125Z,4.18
2024-02-18T16:57:33.135Z,2.25
2024-02-18T16:59:59.701Z,5.05
2024-02-18T17:02:26.289Z,2.15
2024-02-18T17:04:53.183Z,2.25
2024-02-18T17:07:20.711Z,2.20
2024-02-18T17:09:48.604Z,2.15
2024-02-18T17:12:16.307Z,2.60
2024-02-18T17:14:42.863Z,2.08
2024-02-18T17:17:09.478Z,2.47
2024-02-18T17:19:36.106Z,2.22
2024-02-18T17:22:02.874Z,2.60
2024-02-18T17:24:29.896Z,2.75
2024-02-18T17:26:59.439Z,2.60
2024-02-18T17:29:26.052Z,2.78
2024-02-18T17:31:52.920Z,2.67
2024-02-18T17:34:25.548Z,2.90
2024-02-18T17:36:57.619Z,2.65
2024-02-18T17:39:26.347Z,3.22
2024-02-18T17:41:54.014Z,3.20
2024-02-18T17:44:20.744Z,3.20
2024-02-18T17:46:47.427Z,3.50
2024-02-18T17:49:14.097Z,3.10
2024-02-18T17:51:41.163Z,3.50
2024-02-18T17:54:08.131Z,3.63
2024-02-18T17:56:35.301Z,4.20
2024-02-18T17:59:02.021Z,3.20
2024-02-18T18:01:28.762Z,4.00
2024-02-18T18:03:55.452Z,3.13
2024-02-18T18:06:22.041Z,2.00
2024-02-18T18:08:48.552Z,1.52
2024-02-18T18:11:15.151Z,1.20
2024-02-18T18:13:41.851Z,1.33
2024-02-18T18:16:08.525Z,1.38
2024-02-18T18:18:37.194Z,1.63
2024-02-18T18:21:04.519Z,1.70
2024-02-18T18:23:31.120Z,2.00
2024-02-18T18:25:58.652Z,2.03
2024-02-18T18:28:25.411Z,2.05
2024-02-18T18:30:52.205Z,2.38
2024-02-18T18:33:18.925Z,2.15
2024-02-18T18:35:45.488Z,2.22
2024-02-18T18:38:12.067Z,1.75
2024-02-18T18:40:38.651Z,1.77
2024-02-18T18:43:05.216Z,1.40
2024-02-18T18:45:31.840Z,1.45
2024-02-18T18:47:59.968Z,1.27
2024-02-18T18:50:26.555Z,1.30
2024-02-18T18:52:54.726Z,1.23
2024-02-18T18:55:21.708Z,1.40
2024-02-18T18:57:48.312Z,3.17
2024-02-18T19:00:15.106Z,1.33
2024-02-18T19:02:41.662Z,1.35
2024-02-18T19:05:08.847Z,1.40
2024-02-18T19:07:36.188Z,1.63
2024-02-18T19:10:04.024Z,1.70
2024-02-18T19:12:30.836Z,6.35
2024-02-18T19:14:57.441Z,1.73
2024-02-18T19:17:26.675Z,3.13
2024-02-18T19:19:53.346Z,1.63
2024-02-18T19:22:19.995Z,2.08
2024-02-18T19:24:49.551Z,2.30
2024-02-18T19:27:16.186Z,2.30
2024-02-18T19:29:42.749Z,2.45
2024-02-18T19:32:09.319Z,2.20
2024-02-18T19:34:36.292Z,1.63
2024-02-18T19:37:03.073Z,2.10
2024-02-18T19:39:32.066Z,2.05
2024-02-18T19:41:58.660Z,2.40
2024-02-18T19:44:25.197Z,2.67
2024-02-18T19:46:52.214Z,2.10
2024-02-18T19:49:18.975Z,2.17
2024-02-18T19:51:47.558Z,2.50
2024-02-18T19:54:15.356Z,1.60
2024-02-18T19:56:42.559Z,1.85
2024-02-18T19:59:09.978Z,2.00
2024-02-18T20:01:36.912Z,1.55
2024-02-18T20:04:03.779Z,2.78
2024-02-18T20:06:30.616Z,6.45
2024-02-18T20:08:57.222Z,2.00
2024-02-18T20:11:25.755Z,2.45
2024-02-18T20:13:53.877Z,2.08
2024-02-18T20:16:20.439Z,2.83
2024-02-18T20:18:47.111Z,2.63
2024-02-18T20:21:14.889Z,2.15
2024-02-18T20:23:42.151Z,2.08
2024-02-18T20:26:17.965Z,1.98
2024-02-18T20:28:44.718Z,2.50
2024-02-18T20:31:19.212Z,2.13
2024-02-18T20:33:46.139Z,2.50
2024-02-18T20:36:13.791Z,2.17
2024-02-18T20:38:41.819Z,2.50
2024-02-18T20:41:09.028Z,3.00
2024-02-18T20:43:35.923Z,2.42
2024-02-18T20:46:04.253Z,2.38
2024-02-18T20:48:31.091Z,2.60
2024-02-18T20:50:57.814Z,2.47
2024-02-18T20:53:24.441Z,2.33
2024-02-18T20:55:50.960Z,2.28
2024-02-18T20:58:19.249Z,2.70
2024-02-18T21:00:45.916Z,2.75
2024-02-18T21:03:13.273Z,3.40
2024-02-18T21:05:40.035Z,2.83
2024-02-18T21:08:06.884Z,3.40
2024-02-18T21:10:33.463Z,2.92
2024-02-18T21:13:00.014Z,2.90
2024-02-18T21:15:28.592Z,3.33
2024-02-18T21:17:55.287Z,3.72
2024-02-18T21:20:21.879Z,3.55
2024-02-18T21:22:48.430Z,3.53
2024-02-18T21:25:18.039Z,3.10
2024-02-18T21:27:44.813Z,3.10
2024-02-18T21:30:11.797Z,3.50
2024-02-18T21:32:39.152Z,3.40
2024-02-18T21:35:06.114Z,3.00
2024-02-18T21:37:35.528Z,3.30
2024-02-18T21:40:05.819Z,3.30
2024-02-18T21:42:35.385Z,3.08
2024-02-18T21:45:02.221Z,3.50
2024-02-18T21:47:28.788Z,2.92
2024-02-18T21:49:55.409Z,3.10
2024-02-18T21:52:22.306Z,3.85
2024-02-18T21:54:52.420Z,4.07
2024-02-18T21:57:19.543Z,6.70
2024-02-18T21:59:46.698Z,5.07
2024-02-18T22:02:13.488Z,4.78
2024-02-18T22:04:40.290Z,3.88
2024-02-18T22:07:13.866Z,3.53
2024-02-18T22:09:45.366Z,3.33
2024-02-18T22:12:12.373Z,3.90
2024-02-18T22:14:38.973Z,3.40
2024-02-18T22:17:07.416Z,2.83
2024-02-18T22:19:34.401Z,3.22
2024-02-18T22:22:01.133Z,3.60
2024-02-18T22:24:28.649Z,3.30
2024-02-18T22:26:55.545Z,3.75
2024-02-18T22:29:22.337Z,3.22
2024-02-18T22:31:48.943Z,3.90
2024-02-18T22:34:18.740Z,4.25
2024-02-18T22:36:45.453Z,3.45
2024-02-18T22:39:13.457Z,3.97
2024-02-18T22:41:42.789Z,4.40
2024-02-18T22:44:09.361Z,4.30
2024-02-18T22:46:35.901Z,4.05
2024-02-18T22:49:03.008Z,4.75
2024-02-18T22:51:29.675Z,4.72
2024-02-18T22:53:56.216Z,5.80
2024-02-18T22:56:22.736Z,4.60
2024-02-18T22:58:50.431Z,4.60
2024-02-18T23:01:17.102Z,4.20
2024-02-18T23:03:43.746Z,5.07
2024-02-18T23:06:10.401Z,4.80
2024-02-18T23:08:40.703Z,5.47
2024-02-18T23:11:08.812Z,4.80
2024-02-18T23:13:35.693Z,4.50
2024-02-18T23:16:02.301Z,5.13
2024-02-18T23:18:28.881Z,4.40
2024-02-18T23:20:55.447Z,5.15
2024-02-18T23:23:21.965Z,6.07
2024-02-18T23:25:48.556Z,5.43
2024-02-18T23:28:15.276Z,5.18
2024-02-18T23:30:41.919Z,5.78
2024-02-18T23:33:08.526Z,6.22
2024-02-18T23:35:35.186Z,5.72
2024-02-18T23:38:01.735Z,5.97
2024-02-18T23:40:28.453Z,5.72
2024-02-18T23:42:55.075Z,6.13
2024-02-18T23:45:21.702Z,5.78
2024-02-18T23:47:48.234Z,6.68
2024-02-18T23:50:14.952Z,6.53
2024-02-18T23:52:41.494Z,6.75
2024-02-18T23:55:09.332Z,6.32
2024-02-18T23:57:35.965Z,6.10
